Impacts METAR Board INFO
IDs:

KLAX - Los Angeles Intl, CA, US

Updated at: 0304 UTC 18 Dec 2017
Potential Impact None Slight Moderate High
Time17/15Z 17/16Z 17/17Z 17/18Z 17/19Z 17/20Z 17/21Z 17/22Z 17/23Z 18/00Z 18/01Z 18/02Z 18/03Z
VIS10 10 10 10 10 10 10 10 10 10 10 10 10
CIG-- -- -- -- -- -- -- -- -- -- -- -- --
CoverFEWFEWFEWFEWFEWFEWFEWFEWFEWFEWFEWFEWFEW
FltCatVFRVFRVFRVFRVFRVFRVFRVFRVFRVFRVFRVFRVFR
WX--------------------------
WDir360350103500280160034003400360
WSpd6 11 10 7 0 6 4 4 11 4 4 0 6
WGst-- -- 17 -- -- -- -- -- -- -- -- -- --
Raw hourly METARs
KLAX 171453Z 36006KT 10SM FEW070 FEW200 14/M06 A2989 RMK AO2 SLP119 T01441061 53019
KLAX 171553Z 35011KT 10SM FEW070 FEW200 16/M07 A2991 RMK AO2 SLP127 T01561072
KLAX 171653Z 01010G17KT 340V040 10SM FEW200 17/M09 A2992 RMK AO2 SLP129 T01721089
KLAX 171753Z 35007KT 310V020 10SM FEW200 19/M08 A2993 RMK AO2 SLP134 T01891078 10189 20133 51016
KLAX 171853Z 00000KT 10SM FEW200 21/M08 A2992 RMK AO2 SLP133 T02061078
KLAX 171953Z 28006KT 10SM FEW200 21/M07 A2992 RMK AO2 SLP131 T02111072
KLAX 172053Z 16004KT 10SM FEW200 22/M06 A2990 RMK AO2 SLP124 T02221061 58009
KLAX 172153Z VRB04KT 10SM FEW250 22/M05 A2990 RMK AO2 SLP125 T02221050
KLAX 172253Z 34011KT 10SM FEW200 22/M06 A2992 RMK AO2 SLP131 T02221061
KLAX 172353Z VRB04KT 10SM FEW200 22/M06 A2992 RMK AO2 SLP132 T02221056 10233 20189 52008
KLAX 180053Z 34004KT 10SM FEW200 22/M06 A2995 RMK AO2 SLP141 T02171056
KLAX 180153Z 00000KT 10SM FEW200 19/M06 A2997 RMK AO2 SLP148 T01891056
KLAX 180253Z 36006KT 10SM FEW200 18/M06 A3000 RMK AO2 SLP156 T01781056 51023